createdAt,value
2023-03-17T00:00:59.481Z,0.00
2023-03-17T00:01:59.604Z,0.00
2023-03-17T00:02:59.766Z,0.00
2023-03-17T00:03:59.831Z,0.00
2023-03-17T00:04:59.919Z,0.00
2023-03-17T00:06:00.042Z,0.00
2023-03-17T00:07:00.131Z,0.00
2023-03-17T00:08:00.268Z,0.00
2023-03-17T00:09:00.380Z,0.00
2023-03-17T00:10:00.518Z,0.00
2023-03-17T00:11:00.617Z,0.00
2023-03-17T00:12:00.776Z,0.00
2023-03-17T00:13:00.881Z,0.00
2023-03-17T00:14:01.038Z,0.00
2023-03-17T00:15:01.126Z,0.00
2023-03-17T00:16:01.259Z,0.00
2023-03-17T00:17:01.355Z,0.00
2023-03-17T00:18:01.512Z,0.00
2023-03-17T00:19:01.576Z,0.00
2023-03-17T00:20:01.666Z,0.00
2023-03-17T00:21:01.828Z,0.00
2023-03-17T00:22:01.944Z,0.00
2023-03-17T00:23:02.043Z,0.00
2023-03-17T00:24:03.678Z,0.00
2023-03-17T00:25:02.283Z,0.00
2023-03-17T00:26:02.407Z,0.00
2023-03-17T00:27:02.563Z,0.00
2023-03-17T00:28:02.617Z,0.00
2023-03-17T00:29:02.704Z,0.00
2023-03-17T00:30:02.843Z,0.00
2023-03-17T00:31:03.070Z,0.00
2023-03-17T00:32:03.171Z,0.00
2023-03-17T00:33:03.260Z,0.00
2023-03-17T00:34:03.340Z,0.00
2023-03-17T00:35:03.462Z,0.00
2023-03-17T00:36:03.773Z,0.00
2023-03-17T00:37:03.701Z,0.00
2023-03-17T00:38:03.800Z,0.00
2023-03-17T00:39:03.909Z,0.00
2023-03-17T00:40:04.124Z,0.00
2023-03-17T00:41:04.262Z,0.00
2023-03-17T00:42:04.350Z,0.00
2023-03-17T00:43:04.436Z,0.00
2023-03-17T00:44:04.624Z,0.00
2023-03-17T00:45:04.642Z,0.00
2023-03-17T00:46:04.819Z,0.00
2023-03-17T00:47:04.935Z,0.00
2023-03-17T00:48:05.030Z,0.00
2023-03-17T00:49:05.106Z,0.00
2023-03-17T00:50:05.268Z,0.00
2023-03-17T00:51:05.388Z,0.00
2023-03-17T00:52:05.463Z,0.00
2023-03-17T00:53:05.605Z,0.00
2023-03-17T00:54:05.689Z,0.00
2023-03-17T00:55:05.791Z,0.00
2023-03-17T00:56:05.942Z,0.00
2023-03-17T00:57:06.094Z,0.00
2023-03-17T00:58:06.131Z,0.00
2023-03-17T00:59:06.382Z,0.00
2023-03-17T01:00:06.357Z,0.00
2023-03-17T01:01:06.580Z,0.00
2023-03-17T01:02:06.653Z,0.00
2023-03-17T01:03:06.740Z,0.00
2023-03-17T01:04:06.829Z,0.00
2023-03-17T01:05:07.127Z,0.00
2023-03-17T01:06:07.078Z,0.00
2023-03-17T01:07:07.269Z,0.00
2023-03-17T01:08:07.325Z,0.00
2023-03-17T01:09:07.457Z,0.00
2023-03-17T01:10:07.568Z,0.00
2023-03-17T01:11:07.755Z,0.00
2023-03-17T01:12:07.877Z,0.00
2023-03-17T01:13:07.927Z,0.00
2023-03-17T01:14:08.007Z,0.00
2023-03-17T01:15:08.143Z,0.00
2023-03-17T01:16:08.243Z,0.00
2023-03-17T01:17:08.325Z,0.00
2023-03-17T01:18:08.437Z,0.00
2023-03-17T01:19:08.570Z,0.00
2023-03-17T01:20:08.713Z,0.00
2023-03-17T01:21:08.815Z,0.00
2023-03-17T01:22:08.922Z,0.00
2023-03-17T01:23:09.034Z,0.00
2023-03-17T01:24:09.179Z,0.00
2023-03-17T01:25:09.268Z,0.00
2023-03-17T01:26:09.373Z,0.00
2023-03-17T01:27:09.489Z,0.00
2023-03-17T01:28:09.594Z,0.00
2023-03-17T01:29:09.792Z,0.00
2023-03-17T01:30:09.882Z,0.00
2023-03-17T01:31:10.098Z,0.00
2023-03-17T01:32:10.223Z,0.00
2023-03-17T01:33:10.307Z,0.00
2023-03-17T01:34:10.455Z,0.00
2023-03-17T01:35:10.550Z,0.00
2023-03-17T01:36:10.736Z,0.00
2023-03-17T01:37:10.812Z,0.00
2023-03-17T01:38:10.976Z,0.00
2023-03-17T01:39:11.064Z,0.00
2023-03-17T01:40:11.212Z,0.00
2023-03-17T01:41:11.371Z,0.00
2023-03-17T01:42:11.495Z,0.00
2023-03-17T01:43:11.608Z,0.00
2023-03-17T01:44:11.752Z,0.00
2023-03-17T01:45:11.842Z,0.00
2023-03-17T01:46:12.065Z,0.00
2023-03-17T01:47:12.113Z,0.00
2023-03-17T01:48:12.212Z,0.00
2023-03-17T01:49:12.381Z,0.00
2023-03-17T01:50:12.563Z,0.00
2023-03-17T01:51:12.601Z,0.00
2023-03-17T01:52:12.846Z,0.00
2023-03-17T01:53:12.859Z,0.00
2023-03-17T01:54:12.980Z,0.00
2023-03-17T01:55:13.100Z,0.00
2023-03-17T01:56:13.215Z,0.00
2023-03-17T01:57:13.329Z,0.00
2023-03-17T01:58:13.440Z,0.00
2023-03-17T01:59:13.550Z,0.00
2023-03-17T02:00:13.732Z,0.00
2023-03-17T02:01:13.777Z,0.00
2023-03-17T02:02:13.886Z,0.00
2023-03-17T02:03:14.006Z,0.00
2023-03-17T02:04:14.204Z,0.00
2023-03-17T02:05:14.239Z,0.00
2023-03-17T02:06:14.335Z,0.00
2023-03-17T02:07:14.475Z,0.00
2023-03-17T02:08:14.555Z,0.00
2023-03-17T02:09:14.662Z,0.00
2023-03-17T02:10:14.793Z,0.00
2023-03-17T02:11:14.928Z,0.00
2023-03-17T02:12:15.104Z,0.00
2023-03-17T02:13:15.151Z,0.00
2023-03-17T02:14:15.265Z,0.00
2023-03-17T02:15:15.381Z,0.00
2023-03-17T02:16:15.521Z,0.00
2023-03-17T02:17:15.629Z,0.00
2023-03-17T02:18:15.731Z,0.00
2023-03-17T02:19:15.864Z,0.00
2023-03-17T02:20:15.991Z,0.00
2023-03-17T02:21:16.082Z,0.00
2023-03-17T02:22:16.223Z,0.00
2023-03-17T02:23:16.289Z,0.00
2023-03-17T02:24:16.432Z,0.00
2023-03-17T02:25:16.520Z,0.00
2023-03-17T02:26:16.647Z,0.00
2023-03-17T02:27:16.810Z,0.00
2023-03-17T02:28:16.882Z,0.00
2023-03-17T02:29:16.989Z,0.00
2023-03-17T02:30:17.107Z,0.00
2023-03-17T02:31:17.301Z,0.00
2023-03-17T02:32:17.381Z,0.00
2023-03-17T02:33:17.428Z,0.00
2023-03-17T02:34:17.538Z,0.00
2023-03-17T02:35:17.652Z,0.00
2023-03-17T02:36:17.820Z,0.00
2023-03-17T02:37:17.952Z,0.00
2023-03-17T02:38:18.024Z,0.00
2023-03-17T02:39:18.108Z,0.00
2023-03-17T02:40:18.218Z,0.00
2023-03-17T02:41:18.368Z,0.00
2023-03-17T02:42:18.443Z,0.00
2023-03-17T02:43:18.557Z,0.00
2023-03-17T02:44:18.678Z,0.00
2023-03-17T02:45:18.789Z,0.00
2023-03-17T02:46:18.985Z,0.00
2023-03-17T02:47:19.012Z,0.00
2023-03-17T02:48:19.148Z,0.00
2023-03-17T02:49:19.230Z,0.00
2023-03-17T02:50:19.352Z,0.00
2023-03-17T02:51:19.503Z,0.00
2023-03-17T02:52:19.679Z,0.00
2023-03-17T02:53:19.739Z,0.00
2023-03-17T02:54:19.862Z,0.00
2023-03-17T02:55:19.958Z,0.00
2023-03-17T02:56:20.179Z,0.00
2023-03-17T02:57:20.169Z,0.00
2023-03-17T02:58:20.295Z,0.00
2023-03-17T02:59:20.444Z,0.00
2023-03-17T03:00:20.516Z,0.00
2023-03-17T03:01:20.714Z,0.00
2023-03-17T03:02:20.815Z,0.00
2023-03-17T03:03:20.855Z,0.00
2023-03-17T03:04:20.987Z,0.00
2023-03-17T03:05:21.108Z,0.00
2023-03-17T03:06:21.225Z,0.00
2023-03-17T03:07:21.305Z,0.00
2023-03-17T03:08:21.415Z,0.00
2023-03-17T03:09:21.586Z,0.00
2023-03-17T03:10:21.645Z,0.00
2023-03-17T03:11:21.802Z,0.00
2023-03-17T03:12:21.958Z,0.00
2023-03-17T03:13:21.972Z,0.00
2023-03-17T03:14:22.093Z,0.00
2023-03-17T03:15:22.193Z,0.00
2023-03-17T03:16:22.327Z,0.00
2023-03-17T03:17:22.475Z,0.00
2023-03-17T03:18:22.535Z,0.00
2023-03-17T03:19:22.645Z,0.00
2023-03-17T03:20:22.745Z,0.00
2023-03-17T03:21:22.873Z,0.00
2023-03-17T03:22:22.980Z,0.00
2023-03-17T03:23:23.125Z,0.00
2023-03-17T03:24:23.242Z,0.00
2023-03-17T03:25:23.369Z,0.00
2023-03-17T03:26:23.469Z,0.00
2023-03-17T03:27:23.582Z,0.00
2023-03-17T03:28:23.682Z,0.00
2023-03-17T03:29:23.874Z,0.00
2023-03-17T03:30:23.921Z,0.00
2023-03-17T03:31:24.091Z,0.00
2023-03-17T03:32:24.268Z,0.00
2023-03-17T03:33:24.259Z,0.00
2023-03-17T03:34:24.386Z,0.00
2023-03-17T03:35:24.489Z,0.00
2023-03-17T03:36:24.631Z,0.00
2023-03-17T03:37:24.739Z,0.00
2023-03-17T03:38:24.859Z,0.00
2023-03-17T03:39:24.953Z,0.00
2023-03-17T03:40:25.074Z,0.00
2023-03-17T03:41:25.176Z,0.00
2023-03-17T03:42:25.314Z,0.00
2023-03-17T03:43:25.415Z,0.00
2023-03-17T03:44:25.547Z,0.00
2023-03-17T03:45:25.656Z,0.00
2023-03-17T03:46:25.837Z,0.00
2023-03-17T03:47:25.853Z,0.00
2023-03-17T03:48:26.090Z,0.00
2023-03-17T03:49:26.110Z,0.00
2023-03-17T03:50:26.211Z,0.00
2023-03-17T03:51:26.323Z,0.00
2023-03-17T03:52:26.451Z,0.00
2023-03-17T03:53:26.567Z,0.00
2023-03-17T03:54:26.688Z,0.00
2023-03-17T03:55:26.780Z,0.00
2023-03-17T03:56:26.872Z,0.00
2023-03-17T03:57:26.979Z,0.00
2023-03-17T03:58:27.099Z,0.00
2023-03-17T03:59:27.201Z,0.00
2023-03-17T04:00:27.390Z,0.00
2023-03-17T04:01:27.708Z,0.00
2023-03-17T04:02:27.591Z,0.00
2023-03-17T04:03:27.688Z,0.00
2023-03-17T04:04:27.797Z,0.00
2023-03-17T04:05:27.903Z,0.00
2023-03-17T04:06:28.037Z,0.00
2023-03-17T04:07:28.086Z,0.00
2023-03-17T04:08:28.194Z,0.00
2023-03-17T04:09:28.324Z,0.00
2023-03-17T04:10:28.616Z,0.00
2023-03-17T04:11:28.593Z,0.00
2023-03-17T04:12:28.817Z,0.00
2023-03-17T04:13:28.868Z,0.00
2023-03-17T04:14:28.900Z,0.00
2023-03-17T04:15:29.004Z,0.00
2023-03-17T04:16:29.270Z,0.00
2023-03-17T04:17:29.262Z,0.00
2023-03-17T04:18:29.396Z,0.00
2023-03-17T04:19:29.514Z,0.00
2023-03-17T04:20:29.961Z,0.00
2023-03-17T04:21:29.762Z,0.00
2023-03-17T04:22:29.834Z,0.00
2023-03-17T04:23:29.942Z,0.00
2023-03-17T04:24:30.081Z,0.00
2023-03-17T04:25:30.196Z,0.00
2023-03-17T04:26:30.304Z,0.00
2023-03-17T04:27:30.435Z,0.00
2023-03-17T04:28:30.559Z,0.00
2023-03-17T04:29:30.791Z,0.00
2023-03-17T04:30:31.122Z,0.00
2023-03-17T04:31:31.007Z,0.00
2023-03-17T04:32:31.107Z,0.00
2023-03-17T04:33:31.109Z,0.00
2023-03-17T04:34:31.272Z,0.00
2023-03-17T04:35:31.377Z,0.00
2023-03-17T04:36:31.447Z,0.00
2023-03-17T04:37:34.145Z,0.00
2023-03-17T04:38:31.668Z,0.00
2023-03-17T04:39:31.808Z,0.00
2023-03-17T04:40:32.209Z,0.00
2023-03-17T04:41:31.985Z,0.00
2023-03-17T04:42:32.101Z,0.00
2023-03-17T04:43:32.224Z,0.00
2023-03-17T04:44:32.370Z,0.00
2023-03-17T04:45:32.452Z,0.00
2023-03-17T04:46:32.536Z,0.00
2023-03-17T04:47:32.663Z,0.00
2023-03-17T04:48:32.805Z,0.00
2023-03-17T04:49:32.903Z,0.00
2023-03-17T04:50:33.544Z,0.00
2023-03-17T04:51:33.074Z,0.00
2023-03-17T04:52:33.275Z,0.00
2023-03-17T04:53:33.305Z,0.00
2023-03-17T04:54:33.501Z,0.00
2023-03-17T04:55:33.576Z,0.00
2023-03-17T04:56:33.651Z,0.00
2023-03-17T04:57:33.743Z,0.00
2023-03-17T04:58:33.864Z,0.00
2023-03-17T04:59:34.064Z,0.00
2023-03-17T05:00:34.133Z,0.00
2023-03-17T05:01:34.202Z,0.00
2023-03-17T05:02:34.335Z,0.00
2023-03-17T05:03:34.422Z,0.00
2023-03-17T05:04:34.605Z,0.00
2023-03-17T05:05:34.672Z,0.00
2023-03-17T05:06:34.763Z,0.00
2023-03-17T05:07:34.851Z,0.00
2023-03-17T05:08:35.003Z,0.00
2023-03-17T05:09:35.078Z,0.00
2023-03-17T05:10:35.210Z,0.00
2023-03-17T05:11:35.308Z,0.00
2023-03-17T05:12:35.512Z,0.00
2023-03-17T05:13:35.537Z,0.00
2023-03-17T05:14:35.650Z,0.00
2023-03-17T05:15:35.799Z,0.00
2023-03-17T05:16:35.950Z,0.00
2023-03-17T05:17:35.979Z,0.00
2023-03-17T05:18:36.088Z,0.00
2023-03-17T05:19:36.473Z,0.00
2023-03-17T05:20:36.456Z,0.00
2023-03-17T05:21:36.438Z,0.00
2023-03-17T05:22:36.549Z,0.00
2023-03-17T05:23:36.650Z,0.00
2023-03-17T05:24:36.769Z,0.00
2023-03-17T05:25:36.916Z,0.00
2023-03-17T05:26:36.976Z,0.00
2023-03-17T05:27:37.106Z,0.00
2023-03-17T05:28:37.210Z,0.00
2023-03-17T05:29:37.336Z,0.00
2023-03-17T05:30:37.439Z,0.00
2023-03-17T05:31:37.586Z,0.00
2023-03-17T05:32:37.808Z,0.00
2023-03-17T05:33:37.744Z,0.00
2023-03-17T05:34:37.864Z,0.00
2023-03-17T05:35:38.028Z,0.00
2023-03-17T05:36:38.094Z,0.00
2023-03-17T05:37:38.193Z,0.00
2023-03-17T05:38:38.303Z,0.00
2023-03-17T05:39:38.434Z,0.00
2023-03-17T05:40:38.538Z,0.00
2023-03-17T05:41:38.691Z,0.00
2023-03-17T05:42:38.750Z,0.00
2023-03-17T05:43:38.870Z,5.62
2023-03-17T05:44:38.963Z,5.62
2023-03-17T05:45:39.083Z,5.62
2023-03-17T05:46:39.181Z,5.62
2023-03-17T05:47:39.308Z,5.62
2023-03-17T05:48:39.404Z,5.62
2023-03-17T05:49:39.537Z,5.62
2023-03-17T05:50:39.629Z,11.25
2023-03-17T05:51:39.746Z,11.25
2023-03-17T05:52:39.928Z,11.25
2023-03-17T05:53:39.997Z,11.25
2023-03-17T05:54:40.090Z,11.25
2023-03-17T05:55:40.239Z,16.88
2023-03-17T05:56:40.351Z,16.88
2023-03-17T05:57:40.513Z,16.88
2023-03-17T05:58:40.563Z,22.50
2023-03-17T05:59:40.679Z,22.50
2023-03-17T06:00:40.785Z,22.50
2023-03-17T06:01:40.882Z,22.50
2023-03-17T06:02:41.062Z,28.12
2023-03-17T06:03:41.244Z,28.12
2023-03-17T06:04:41.240Z,28.12
2023-03-17T06:05:41.320Z,33.75
2023-03-17T06:06:41.429Z,33.75
2023-03-17T06:07:53.137Z,33.75
2023-03-17T06:08:42.647Z,39.38
2023-03-17T06:09:41.761Z,39.38
2023-03-17T06:10:41.870Z,39.38
2023-03-17T06:11:41.967Z,45.00
2023-03-17T06:12:42.263Z,45.00
2023-03-17T06:13:42.332Z,45.00
2023-03-17T06:14:42.318Z,45.00
2023-03-17T06:15:42.518Z,50.62
2023-03-17T06:16:42.571Z,50.62
2023-03-17T06:17:42.656Z,56.25
2023-03-17T06:18:42.752Z,56.25
2023-03-17T06:19:42.862Z,56.25
2023-03-17T06:20:42.975Z,61.88
2023-03-17T06:21:43.103Z,61.88
2023-03-17T06:23:00.333Z,67.50
2023-03-17T06:23:44.353Z,67.50
2023-03-17T06:24:43.433Z,73.12
2023-03-17T06:25:43.543Z,73.12
2023-03-17T06:26:43.681Z,78.75
2023-03-17T06:27:43.776Z,84.38
2023-03-17T06:28:44.022Z,84.38
2023-03-17T06:29:44.056Z,90.00
2023-03-17T06:30:44.176Z,90.00
2023-03-17T06:31:44.279Z,95.62
2023-03-17T06:32:44.524Z,101.25
2023-03-17T06:33:44.512Z,106.88
2023-03-17T06:34:44.628Z,112.50
2023-03-17T06:35:44.842Z,118.12
2023-03-17T06:36:44.832Z,123.75
2023-03-17T06:37:44.940Z,123.75
2023-03-17T06:38:45.041Z,129.38
2023-03-17T06:39:45.165Z,129.38
2023-03-17T06:40:45.259Z,135.00
2023-03-17T06:41:45.378Z,140.62
2023-03-17T06:42:45.450Z,146.25
2023-03-17T06:43:45.569Z,151.88
2023-03-17T06:44:45.683Z,157.50
2023-03-17T06:45:45.779Z,163.12
2023-03-17T06:46:45.897Z,163.12
2023-03-17T06:47:45.997Z,163.12
2023-03-17T06:48:46.126Z,168.75
2023-03-17T06:49:46.236Z,168.75
2023-03-17T06:50:46.330Z,174.38
2023-03-17T06:51:46.587Z,180.00
2023-03-17T06:52:46.967Z,180.00
2023-03-17T06:53:46.766Z,185.62
2023-03-17T06:54:46.878Z,185.62
2023-03-17T06:55:46.994Z,191.25
2023-03-17T06:56:47.132Z,191.25
2023-03-17T06:57:49.127Z,196.88
2023-03-17T06:58:47.356Z,202.50
2023-03-17T06:59:47.437Z,202.50
2023-03-17T07:00:47.623Z,208.12
2023-03-17T07:01:47.769Z,219.38
2023-03-17T07:02:47.821Z,219.38
2023-03-17T07:03:48.007Z,225.00
2023-03-17T07:04:48.197Z,236.25
2023-03-17T07:05:48.247Z,236.25
2023-03-17T07:06:48.343Z,247.50
2023-03-17T07:07:48.457Z,247.50
2023-03-17T07:08:48.593Z,258.75
2023-03-17T07:09:48.717Z,258.75
2023-03-17T07:10:48.802Z,270.00
2023-03-17T07:11:48.924Z,275.62
2023-03-17T07:12:49.053Z,286.88
2023-03-17T07:13:49.219Z,292.50
2023-03-17T07:14:49.296Z,298.12
2023-03-17T07:15:49.456Z,298.12
2023-03-17T07:16:49.524Z,298.12
2023-03-17T07:17:49.634Z,292.50
2023-03-17T07:18:49.789Z,292.50
2023-03-17T07:19:49.879Z,292.50
2023-03-17T07:20:49.974Z,286.88
2023-03-17T07:21:50.077Z,281.25
2023-03-17T07:22:50.221Z,275.62
2023-03-17T07:23:50.335Z,281.25
2023-03-17T07:24:50.426Z,275.62
2023-03-17T07:25:50.629Z,275.62
2023-03-17T07:26:50.599Z,270.00
2023-03-17T07:27:50.740Z,270.00
2023-03-17T07:28:50.878Z,270.00
2023-03-17T07:29:50.964Z,275.62
2023-03-17T07:30:51.121Z,275.62
2023-03-17T07:31:51.236Z,275.62
2023-03-17T07:32:51.395Z,275.62
2023-03-17T07:33:51.396Z,275.62
2023-03-17T07:34:51.529Z,275.62
2023-03-17T07:35:51.740Z,275.62
2023-03-17T07:36:51.734Z,275.62
2023-03-17T07:37:51.869Z,275.62
2023-03-17T07:38:51.982Z,275.62
2023-03-17T07:39:52.090Z,281.25
2023-03-17T07:40:52.369Z,275.62
2023-03-17T07:41:52.294Z,275.62
2023-03-17T07:42:52.398Z,275.62
2023-03-17T07:43:52.519Z,275.62
2023-03-17T07:44:52.666Z,270.00
2023-03-17T07:45:52.875Z,275.62
2023-03-17T07:46:52.932Z,281.25
2023-03-17T07:47:52.986Z,303.75
2023-03-17T07:48:53.091Z,326.25
2023-03-17T07:49:53.171Z,331.88
2023-03-17T07:50:53.331Z,343.12
2023-03-17T07:51:53.402Z,354.38
2023-03-17T07:52:53.624Z,360.00
2023-03-17T07:53:53.654Z,365.62
2023-03-17T07:54:53.739Z,360.00
2023-03-17T07:55:53.868Z,371.25
2023-03-17T07:56:53.973Z,365.62
2023-03-17T07:57:54.835Z,354.38
2023-03-17T07:58:54.194Z,348.75
2023-03-17T07:59:54.312Z,348.75
2023-03-17T08:00:54.682Z,354.38
2023-03-17T08:01:57.259Z,354.38
2023-03-17T08:03:08.938Z,354.38
2023-03-17T08:03:55.795Z,365.62
2023-03-17T08:04:54.878Z,371.25
2023-03-17T08:05:55.009Z,376.88
2023-03-17T08:06:55.134Z,388.12
2023-03-17T08:07:55.234Z,399.38
2023-03-17T08:08:55.389Z,399.38
2023-03-17T08:09:55.459Z,399.38
2023-03-17T08:10:55.616Z,393.75
2023-03-17T08:11:55.687Z,382.50
2023-03-17T08:12:55.957Z,371.25
2023-03-17T08:13:55.968Z,360.00
2023-03-17T08:14:56.068Z,348.75
2023-03-17T08:15:56.246Z,337.50
2023-03-17T08:16:56.354Z,337.50
2023-03-17T08:17:56.498Z,371.25
2023-03-17T08:18:56.587Z,388.12
2023-03-17T08:19:56.694Z,376.88
2023-03-17T08:20:56.807Z,399.38
2023-03-17T08:21:56.905Z,365.62
2023-03-17T08:22:57.022Z,382.50
2023-03-17T08:23:57.184Z,382.50
2023-03-17T08:24:57.281Z,365.62
2023-03-17T08:25:57.360Z,365.62
2023-03-17T08:26:59.679Z,360.00
2023-03-17T08:27:57.584Z,354.38
2023-03-17T08:28:57.735Z,371.25
2023-03-17T08:29:57.803Z,365.62
2023-03-17T08:30:57.967Z,388.12
2023-03-17T08:31:58.133Z,410.62
2023-03-17T08:32:58.257Z,427.50
2023-03-17T08:33:58.264Z,444.38
2023-03-17T08:34:58.407Z,438.75
2023-03-17T08:35:58.491Z,416.25
2023-03-17T08:36:58.597Z,450.00
2023-03-17T08:37:58.724Z,483.75
2023-03-17T08:38:58.862Z,483.75
2023-03-17T08:39:58.988Z,421.88
2023-03-17T08:40:59.059Z,523.12
2023-03-17T08:41:59.173Z,528.75
2023-03-17T08:42:59.277Z,540.00
2023-03-17T08:43:59.386Z,540.00
2023-03-17T08:44:59.555Z,528.75
2023-03-17T08:45:59.641Z,528.75
2023-03-17T08:46:59.723Z,556.88
2023-03-17T08:47:59.822Z,528.75
2023-03-17T08:48:59.946Z,523.12
2023-03-17T08:50:00.115Z,483.75
2023-03-17T08:51:00.175Z,472.50
2023-03-17T08:52:00.273Z,472.50
2023-03-17T08:53:02.075Z,472.50
2023-03-17T08:54:00.494Z,483.75
2023-03-17T08:55:00.633Z,444.38
2023-03-17T08:56:00.698Z,461.25
2023-03-17T08:57:00.803Z,472.50
2023-03-17T08:58:00.918Z,472.50
2023-03-17T08:59:01.040Z,483.75
2023-03-17T09:00:01.167Z,478.12
2023-03-17T09:01:01.311Z,500.62
2023-03-17T09:02:01.390Z,517.50
2023-03-17T09:03:01.563Z,545.62
2023-03-17T09:04:01.603Z,551.25
2023-03-17T09:05:01.742Z,540.00
2023-03-17T09:06:01.810Z,551.25
2023-03-17T09:07:04.022Z,556.88
2023-03-17T09:08:02.094Z,540.00
2023-03-17T09:09:02.144Z,528.75
2023-03-17T09:10:02.263Z,506.25
2023-03-17T09:11:02.398Z,506.25
2023-03-17T09:12:02.499Z,495.00
2023-03-17T09:13:02.662Z,472.50
2023-03-17T09:14:02.712Z,455.62
2023-03-17T09:15:02.881Z,483.75
2023-03-17T09:16:03.008Z,500.62
2023-03-17T09:17:05.785Z,517.50
2023-03-17T09:18:03.278Z,523.12
2023-03-17T09:19:03.326Z,545.62
2023-03-17T09:20:03.468Z,568.12
2023-03-17T09:21:03.567Z,568.12
2023-03-17T09:22:03.657Z,568.12
2023-03-17T09:23:03.750Z,601.88
2023-03-17T09:24:03.877Z,613.12
2023-03-17T09:25:04.007Z,607.50
2023-03-17T09:26:04.089Z,646.88
2023-03-17T09:27:04.243Z,669.38
2023-03-17T09:28:04.329Z,708.75
2023-03-17T09:29:04.802Z,714.38
2023-03-17T09:30:04.541Z,658.12
2023-03-17T09:31:04.680Z,658.12
2023-03-17T09:32:04.786Z,635.62
2023-03-17T09:33:05.061Z,703.12
2023-03-17T09:34:05.029Z,669.38
2023-03-17T09:35:05.092Z,641.25
2023-03-17T09:36:05.227Z,635.62
2023-03-17T09:37:05.376Z,646.88
2023-03-17T09:38:05.423Z,686.25
2023-03-17T09:39:05.543Z,720.00
2023-03-17T09:40:05.654Z,725.62
2023-03-17T09:41:05.756Z,703.12
2023-03-17T09:42:05.889Z,641.25
2023-03-17T09:43:06.084Z,590.62
2023-03-17T09:44:06.135Z,556.88
2023-03-17T09:45:06.249Z,534.38
2023-03-17T09:46:06.375Z,585.00
2023-03-17T09:47:06.501Z,579.38
2023-03-17T09:48:06.665Z,506.25
2023-03-17T09:49:06.705Z,545.62
2023-03-17T09:50:06.816Z,517.50
2023-03-17T09:51:06.963Z,528.75
2023-03-17T09:52:07.481Z,489.38
2023-03-17T09:53:07.174Z,506.25
2023-03-17T09:54:07.305Z,669.38
2023-03-17T09:55:07.435Z,753.75
2023-03-17T09:56:07.549Z,911.25
2023-03-17T09:57:07.677Z,905.62
2023-03-17T09:58:07.755Z,1006.88
2023-03-17T09:59:07.842Z,1023.75
2023-03-17T10:00:07.965Z,961.88
2023-03-17T10:01:08.056Z,1085.62
2023-03-17T10:02:08.224Z,1108.12
2023-03-17T10:03:08.337Z,1080.00
2023-03-17T10:04:08.546Z,1220.62
2023-03-17T10:05:08.614Z,1305.00
2023-03-17T10:06:08.709Z,1372.50
2023-03-17T10:07:08.826Z,1293.75
2023-03-17T10:08:22.820Z,855.00
2023-03-17T10:09:10.095Z,860.62
2023-03-17T10:10:09.153Z,798.75
2023-03-17T10:11:09.274Z,883.12
2023-03-17T10:12:09.365Z,826.88
2023-03-17T10:13:09.525Z,826.88
2023-03-17T10:14:09.617Z,1046.25
2023-03-17T10:15:09.683Z,815.62
2023-03-17T10:16:09.866Z,1282.50
2023-03-17T10:17:09.974Z,967.50
2023-03-17T10:18:10.023Z,714.38
2023-03-17T10:19:10.204Z,770.62
2023-03-17T10:20:10.274Z,787.50
2023-03-17T10:21:10.416Z,1051.88
2023-03-17T10:22:10.526Z,781.88
2023-03-17T10:23:10.643Z,770.62
2023-03-17T10:24:11.013Z,838.12
2023-03-17T10:25:10.853Z,686.25
2023-03-17T10:26:10.983Z,708.75
2023-03-17T10:27:11.087Z,556.88
2023-03-17T10:28:14.853Z,489.38
2023-03-17T10:29:11.376Z,545.62
2023-03-17T10:30:11.451Z,759.38
2023-03-17T10:31:11.616Z,1001.25
2023-03-17T10:32:11.691Z,1265.62
2023-03-17T10:33:11.795Z,1603.12
2023-03-17T10:34:11.937Z,1693.12
2023-03-17T10:35:12.018Z,1800.00
2023-03-17T10:36:12.175Z,1625.62
2023-03-17T10:37:12.238Z,1608.75
2023-03-17T10:38:14.567Z,1648.12
2023-03-17T10:39:12.492Z,1631.25
2023-03-17T10:40:12.592Z,1546.88
2023-03-17T10:41:12.664Z,1541.25
2023-03-17T10:42:12.814Z,1558.12
2023-03-17T10:43:12.905Z,1265.62
2023-03-17T10:44:13.021Z,1361.25
2023-03-17T10:45:13.141Z,1490.62
2023-03-17T10:46:13.247Z,1490.62
2023-03-17T10:47:13.383Z,1383.75
2023-03-17T10:48:13.488Z,1496.25
2023-03-17T10:49:13.609Z,1501.88
2023-03-17T10:50:13.768Z,1243.12
2023-03-17T10:51:13.905Z,1586.25
2023-03-17T10:52:13.920Z,1361.25
2023-03-17T10:53:14.060Z,1485.00
2023-03-17T10:54:14.156Z,1051.88
2023-03-17T10:55:14.316Z,1648.12
2023-03-17T10:56:14.403Z,1372.50
2023-03-17T10:57:14.568Z,1996.88
2023-03-17T10:58:14.635Z,1957.50
2023-03-17T10:59:14.773Z,1895.62
2023-03-17T11:00:14.922Z,2047.50
2023-03-17T11:01:15.062Z,1901.25
2023-03-17T11:02:15.114Z,2008.12
2023-03-17T11:03:15.249Z,1985.62
2023-03-17T11:04:15.363Z,1653.75
2023-03-17T11:05:15.452Z,2306.25
2023-03-17T11:06:15.599Z,1355.62
2023-03-17T11:07:15.663Z,2233.12
2023-03-17T11:08:15.793Z,956.25
2023-03-17T11:09:15.916Z,1006.88
2023-03-17T11:10:16.043Z,995.62
2023-03-17T11:11:16.293Z,1108.12
2023-03-17T11:12:16.287Z,1192.50
2023-03-17T11:13:16.392Z,1479.38
2023-03-17T11:14:16.485Z,1023.75
2023-03-17T11:15:16.660Z,1029.38
2023-03-17T11:16:16.752Z,1260.00
2023-03-17T11:17:16.895Z,1170.00
2023-03-17T11:18:16.989Z,1085.62
2023-03-17T11:19:17.088Z,1288.12
2023-03-17T11:20:17.261Z,1805.62
2023-03-17T11:21:17.322Z,731.25
2023-03-17T11:22:17.490Z,1951.88
2023-03-17T11:23:17.549Z,1676.25
2023-03-17T11:24:17.669Z,2193.75
2023-03-17T11:25:17.808Z,1608.75
2023-03-17T11:26:17.944Z,1125.00
2023-03-17T11:27:18.102Z,1158.75
2023-03-17T11:28:18.117Z,1018.12
2023-03-17T11:29:18.240Z,1057.50
2023-03-17T11:30:18.483Z,1080.00
2023-03-17T11:31:18.504Z,1057.50
2023-03-17T11:32:18.635Z,1068.75
2023-03-17T11:33:18.716Z,950.62
2023-03-17T11:34:18.829Z,995.62
2023-03-17T11:35:18.959Z,1108.12
2023-03-17T11:36:19.056Z,1130.62
2023-03-17T11:37:19.178Z,945.00
2023-03-17T11:38:19.304Z,742.50
2023-03-17T11:39:19.396Z,731.25
2023-03-17T11:40:19.510Z,708.75
2023-03-17T11:41:19.672Z,748.12
2023-03-17T11:42:19.758Z,736.88
2023-03-17T11:43:20.066Z,781.88
2023-03-17T11:44:19.964Z,781.88
2023-03-17T11:45:20.117Z,798.75
2023-03-17T11:46:20.234Z,770.62
2023-03-17T11:47:20.293Z,748.12
2023-03-17T11:48:20.423Z,838.12
2023-03-17T11:49:20.563Z,798.75
2023-03-17T11:50:20.628Z,765.00
2023-03-17T11:51:20.820Z,725.62
2023-03-17T11:52:20.854Z,686.25
2023-03-17T11:53:21.017Z,663.75
2023-03-17T11:54:21.285Z,658.12
2023-03-17T11:55:21.196Z,646.88
2023-03-17T11:56:21.334Z,613.12
2023-03-17T11:57:21.432Z,618.75
2023-03-17T11:58:21.524Z,630.00
2023-03-17T11:59:21.668Z,618.75
2023-03-17T12:00:21.761Z,613.12
2023-03-17T12:01:21.901Z,630.00
2023-03-17T12:02:21.978Z,658.12
2023-03-17T12:03:22.219Z,680.62
2023-03-17T12:04:22.282Z,703.12
2023-03-17T12:05:22.359Z,703.12
2023-03-17T12:06:22.471Z,691.88
2023-03-17T12:07:22.542Z,680.62
2023-03-17T12:08:22.653Z,675.00
2023-03-17T12:09:22.775Z,675.00
2023-03-17T12:10:22.924Z,675.00
2023-03-17T12:11:23.027Z,675.00
2023-03-17T12:12:23.116Z,675.00
2023-03-17T12:13:23.217Z,680.62
2023-03-17T12:14:23.328Z,686.25
2023-03-17T12:15:23.460Z,691.88
2023-03-17T12:16:23.622Z,703.12
2023-03-17T12:17:25.871Z,708.75
2023-03-17T12:18:23.786Z,720.00
2023-03-17T12:19:23.916Z,720.00
2023-03-17T12:20:24.005Z,714.38
2023-03-17T12:21:24.157Z,708.75
2023-03-17T12:22:24.256Z,708.75
2023-03-17T12:23:24.333Z,720.00
2023-03-17T12:24:24.450Z,725.62
2023-03-17T12:25:24.552Z,731.25
2023-03-17T12:26:24.749Z,731.25
2023-03-17T12:27:24.775Z,725.62
2023-03-17T12:28:24.904Z,720.00
2023-03-17T12:29:24.985Z,703.12
2023-03-17T12:30:25.131Z,691.88
2023-03-17T12:31:25.635Z,680.62
2023-03-17T12:32:25.404Z,675.00
2023-03-17T12:33:25.432Z,675.00
2023-03-17T12:34:25.542Z,675.00
2023-03-17T12:35:25.672Z,680.62
2023-03-17T12:36:25.789Z,686.25
2023-03-17T12:37:25.950Z,691.88
2023-03-17T12:38:26.017Z,697.50
2023-03-17T12:39:26.133Z,697.50
2023-03-17T12:40:26.405Z,686.25
2023-03-17T12:41:26.352Z,680.62
2023-03-17T12:42:26.526Z,675.00
2023-03-17T12:43:26.631Z,663.75
2023-03-17T12:44:26.723Z,652.50
2023-03-17T12:45:26.801Z,652.50
2023-03-17T12:46:26.976Z,652.50
2023-03-17T12:47:27.073Z,641.25
2023-03-17T12:48:27.135Z,646.88
2023-03-17T12:49:27.257Z,646.88
2023-03-17T12:50:27.482Z,641.25
2023-03-17T12:51:27.484Z,624.38